Monday, February 18, 2019, 5:23 AM EST
Back to Local

KVAY, Mt Holly South Jersey Rgnl

Location: Medford, NJ, United States Lat: 39.933
Local Time: 5:23 AM EST (10:23 GMT) Lon: -74.833
Time Zone: US/Eastern Elev: 52 ft

Show me the last for .
Show Decoded

2019-02-18 04:54 METAR KVAY 180954Z AUTO 36004KT 6SM -RA BR OVC003 02/01 A2979 RMK AO2 SLP089
                 P0008 T00220011 =
2019-02-18 03:54 METAR KVAY 180854Z AUTO 01004KT 4SM RA BR OVC003 02/01 A2981 RMK AO2 UPB06E19
                 SLP095 P0005 60006 T00170011 56030 =
2019-02-18 02:54 METAR KVAY 180754Z AUTO 11003KT 8SM -RA OVC003 02/01 A2982 RMK AO2
                 UPB13E22B39E42RAB42 SLP099 P0000 T00170011 =
2019-02-18 02:33 METAR KVAY 180733Z AUTO 00000KT 9SM OVC004 02/01 A2985 RMK AO2 UPB13E22 CIG
                 003V006 P0000 T00170006 =
2019-02-18 01:54 METAR KVAY 180654Z AUTO 00000KT 9SM OVC007 01/01 A2987 RMK AO2 RAB09E37UPB20E41
                 SLP116 P0001 T00110006 =
2019-02-18 01:18 METAR KVAY 180618Z AUTO 00000KT 9SM -RA OVC009 01/01 A2989 RMK AO2 RAB09 P0000
                 T00110006 =
2019-02-18 00:54 METAR KVAY 180554Z AUTO 08003KT 9SM BKN010 OVC015 01/01 A2990 RMK AO2
                 RAE45UPB45E47 SLP126 P0002 60023 T00110006 10022 20006 50010 =
2019-02-18 00:42 METAR KVAY 180542Z AUTO 00000KT 8SM -RA BKN010 OVC014 01/00 A2991 RMK AO2 P0002
                 T00110000 =
2019-02-18 00:05 METAR KVAY 180505Z AUTO 05003KT 7SM -RA OVC009 01/00 A2991 RMK AO2 CIG 008V011
                 P0001 T00060000 =
2019-02-17 23:54 METAR KVAY 180454Z AUTO 02004KT 5SM -RA BR OVC011 01/00 A2992 RMK AO2 CIG
                 009V014 SLP133 P0005 T00060000 400441056 =
2019-02-17 23:52 METAR KVAY 180452Z AUTO VRB03KT 5SM RA BR OVC011 01/00 A2992 RMK AO2 P0005 =
2019-02-17 23:11 METAR KVAY 180411Z AUTO 33005KT 9SM -RA BKN006 BKN055 OVC075 01/00 A2997 RMK AO2
                 P0000 T00110000 =
2019-02-17 22:54 METAR KVAY 180354Z AUTO 13007KT 100V170 5SM -RA BR FEW006 BKN060 OVC085 01/M01
                 A2987 RMK AO2 SLP116 P0007 T00061006 =
2019-02-17 21:54 METAR KVAY 180254Z AUTO 36003KT 4SM RA BR OVC040 01/M01 A2999 RMK AO2
                 UPE0156RAB0156 SLP157 P0009 60009 T00061011 55011 =
2019-02-17 20:54 METAR KVAY 180154Z AUTO 00000KT 10SM UP OVC041 01/M02 A2998 RMK AO2
                 UPB10RAB32E46 SLP154 P0000 T00111022 =
2019-02-17 19:54 METAR KVAY 180054Z AUTO 13003KT 10SM FEW050 SCT100 BKN120 02/M03 A2998 RMK AO2
                 SLP154 T00171033 =
2019-02-17 18:54 METAR KVAY 172354Z AUTO 14004KT 10SM BKN050 OVC060 02/M04 A3003 RMK AO2 PRESFR
                 SLP168 T00221039 10044 20022 58004 =
2019-02-17 17:54 METAR KVAY 172254Z AUTO VRB04KT 10SM OVC055 03/M04 A3005 RMK AO2 SLP177
                 T00281039 =
2019-02-17 16:54 METAR KVAY 172154Z AUTO 19004KT 10SM OVC055 04/M06 A3003 RMK AO2 SLP171
                 T00391056 =
2019-02-17 15:54 METAR KVAY 172054Z AUTO 00000KT 10SM BKN055 OVC080 03/M06 A3004 RMK AO2 SLP172
                 T00331061 58033 =
2019-02-17 14:54 METAR KVAY 171954Z AUTO 00000KT 10SM SCT065 03/M07 A3006 RMK AO2 SLP181
                 T00331067 =
2019-02-17 13:54 METAR KVAY 171854Z AUTO 00000KT 10SM CLR 03/M08 A3012 RMK AO2 SLP200 T00281078 =
2019-02-17 12:54 METAR KVAY 171754Z AUTO 31004KT 10SM CLR 03/M08 A3014 RMK AO2 SLP205 T00281078
                 10028 21050 58005 =
2019-02-17 11:54 METAR KVAY 171654Z AUTO 00000KT 10SM CLR 02/M07 A3018 RMK AO2 SLP220 T00221072 =
2019-02-17 10:54 METAR KVAY 171554Z AUTO VRB04KT 10SM CLR 01/M08 A3015 RMK AO2 PRESFR SLP209
                 T00111078 =
2019-02-17 09:54 METAR KVAY 171454Z AUTO 05005KT 10SM CLR 00/M09 A3015 RMK AO2 SLP210 T00001089
                 50004 =
2019-02-17 08:54 METAR KVAY 171354Z AUTO 06006KT 10SM CLR M02/M09 A3016 RMK AO2 SLP212 T10171089
                 =
2019-02-17 07:54 METAR KVAY 171254Z AUTO 33003KT 10SM CLR M03/M09 A3018 RMK AO2 SLP220 T10331089
                 =
2019-02-17 06:54 METAR KVAY 171154Z AUTO 00000KT 10SM CLR M04/M09 A3014 RMK AO2 SLP206 T10441094
                 11017 21056 53021 =
2019-02-17 05:54 METAR KVAY 171054Z AUTO 33003KT 10SM CLR M05/M09 A3009 RMK AO2 SLP189 T10501094
                 =

Support USWX by starting your Amazon purchase here.